Time;durP1;ratioP1;P1;durP2;ratioP2;P2;SDS_P1;SDS_P2;PMS_P1;PMS_P2;Temp;Humidity;BMP_temperature;BMP_pressure;BME280_temperature;BME280_humidity;BME280_pressure;Samples;Min_cycle;Max_cycle;Signal;HPM_P1;HPM_P2
2021/12/06 04:01:17;;;;;;;5.20;4.17;;;6.10;79.20;;;;;;5724722;23;20823;-76
2021/12/06 04:03:44;;;;;;;5.50;4.20;;;6.10;79.00;;;;;;4993756;28;20861;-76
2021/12/06 04:06:13;;;;;;;5.67;5.10;;;6.10;78.90;;;;;;4993650;28;20441;-76
2021/12/06 04:08:39;;;;;;;5.40;4.57;;;6.10;78.90;;;;;;4995418;28;20445;-76
2021/12/06 04:11:07;;;;;;;5.97;4.67;;;6.10;79.00;;;;;;4997322;28;20575;-76
2021/12/06 04:13:34;;;;;;;5.87;5.00;;;6.10;79.30;;;;;;4998454;28;20461;-76
2021/12/06 04:16:01;;;;;;;4.87;4.37;;;6.10;79.20;;;;;;4997330;28;20503;-76
2021/12/06 04:18:29;;;;;;;5.60;4.70;;;6.10;79.10;;;;;;4997286;28;20508;-76
2021/12/06 04:20:56;;;;;;;5.00;4.50;;;6.10;79.00;;;;;;4996777;28;21012;-76
2021/12/06 04:23:23;;;;;;;4.90;4.40;;;6.10;79.20;;;;;;4997116;28;20453;-76
2021/12/06 04:25:50;;;;;;;5.40;4.83;;;6.10;79.10;;;;;;4996731;28;20453;-76
2021/12/06 04:28:19;;;;;;;4.90;4.40;;;6.10;79.20;;;;;;4997083;28;20492;-76
2021/12/06 04:30:46;;;;;;;4.87;4.30;;;6.10;79.30;;;;;;4997006;28;20520;-75
2021/12/06 04:33:13;;;;;;;5.00;4.00;;;6.20;79.40;;;;;;4997047;28;20448;-76
2021/12/06 04:35:41;;;;;;;5.80;5.20;;;6.20;79.40;;;;;;4996986;28;20503;-75
2021/12/06 04:38:10;;;;;;;5.03;4.23;;;6.20;79.30;;;;;;4996940;28;20533;-76
2021/12/06 04:40:37;;;;;;;5.30;4.57;;;6.30;79.10;;;;;;4996898;28;20480;-75
2021/12/06 04:43:05;;;;;;;4.90;4.40;;;6.30;79.10;;;;;;4996858;28;20475;-76
2021/12/06 04:45:32;;;;;;;5.40;4.80;;;6.20;79.00;;;;;;4996587;28;20876;-76
2021/12/06 04:47:58;;;;;;;6.70;6.00;;;6.20;79.10;;;;;;4997310;28;20484;-75
2021/12/06 04:50:28;;;;;;;6.60;4.97;;;6.20;79.00;;;;;;4996702;28;20488;-76
2021/12/06 04:52:59;;;;;;;6.27;5.70;;;6.20;79.10;;;;;;4996674;28;20449;-76
2021/12/06 04:55:32;;;;;;;6.30;5.53;;;6.20;79.10;;;;;;4996716;28;20429;-75
2021/12/06 04:57:58;;;;;;;6.10;5.50;;;6.20;79.10;;;;;;4996678;28;20492;-76
2021/12/06 05:00:32;;;;;;;5.70;4.60;;;6.10;79.10;;;;;;4996279;28;20444;-76
2021/12/06 05:02:59;;;;;;;5.80;5.20;;;6.20;79.10;;;;;;4996542;28;20440;-75
2021/12/06 05:05:31;;;;;;;7.00;5.30;;;6.20;79.10;;;;;;4996465;28;20873;-76
2021/12/06 05:08:03;;;;;;;5.90;4.90;;;6.20;79.10;;;;;;4996488;28;20488;-76
2021/12/06 05:10:30;;;;;;;4.93;4.43;;;6.20;78.90;;;;;;4996070;28;20497;-76
2021/12/06 05:12:57;;;;;;;6.10;4.93;;;6.30;78.80;;;;;;4996408;28;20519;-75
2021/12/06 05:15:24;;;;;;;5.77;4.80;;;6.30;78.90;;;;;;4996341;28;20456;-75
2021/12/06 05:17:51;;;;;;;6.70;6.03;;;6.30;79.00;;;;;;4996265;28;20453;-76
2021/12/06 05:20:18;;;;;;;8.20;5.70;;;6.30;79.10;;;;;;4995188;28;20508;-76
2021/12/06 05:22:45;;;;;;;6.83;6.13;;;6.30;79.10;;;;;;4996333;28;20477;-76
2021/12/06 05:25:14;;;;;;;6.20;5.60;;;6.20;79.10;;;;;;4996292;28;20456;-76
2021/12/06 05:27:41;;;;;;;6.70;5.30;;;6.20;79.10;;;;;;4996518;28;20518;-76
2021/12/06 05:30:12;;;;;;;6.73;5.87;;;6.20;79.20;;;;;;4996006;28;20485;-76
2021/12/06 05:32:41;;;;;;;7.10;6.17;;;6.20;79.30;;;;;;4995850;28;20508;-76
2021/12/06 05:35:11;;;;;;;7.30;6.20;;;6.20;79.40;;;;;;4996039;28;20449;-76
2021/12/06 05:37:41;;;;;;;6.83;6.13;;;6.20;79.40;;;;;;4995997;28;20511;-76
2021/12/06 05:40:11;;;;;;;6.20;5.50;;;6.30;79.40;;;;;;4996003;28;20434;-76
2021/12/06 05:42:40;;;;;;;7.30;6.53;;;6.20;79.40;;;;;;4995867;28;20515;-76
2021/12/06 05:45:09;;;;;;;7.07;5.70;;;6.20;79.30;;;;;;4995793;28;20528;-75
2021/12/06 05:47:36;;;;;;;6.70;5.13;;;6.30;79.20;;;;;;4995728;28;20869;-76
2021/12/06 05:50:04;;;;;;;7.90;6.13;;;6.30;79.20;;;;;;4995627;28;20479;-76
2021/12/06 05:52:31;;;;;;;6.07;4.93;;;6.30;79.20;;;;;;4995958;28;20516;-76
2021/12/06 05:54:58;;;;;;;6.13;5.30;;;6.30;79.10;;;;;;4995581;28;20453;-75
2021/12/06 05:57:25;;;;;;;5.30;4.80;;;6.20;78.90;;;;;;4995592;28;20452;-76
2021/12/06 05:59:53;;;;;;;6.10;5.27;;;6.20;79.20;;;;;;4995547;28;20507;-76
2021/12/06 06:02:21;;;;;;;5.20;4.70;;;6.20;79.00;;;;;;4995090;28;20488;-76
2021/12/06 06:04:48;;;;;;;6.03;5.43;;;6.10;79.20;;;;;;4995464;28;20455;-76
2021/12/06 06:07:15;;;;;;;6.37;5.30;;;6.10;79.30;;;;;;4995469;28;20453;-76
2021/12/06 06:09:42;;;;;;;5.97;5.33;;;6.10;79.40;;;;;;4995358;28;20449;-76
2021/12/06 06:12:09;;;;;;;6.30;5.07;;;6.00;79.50;;;;;;4995304;28;20473;-76
2021/12/06 06:14:36;;;;;;;6.40;4.50;;;6.00;79.60;;;;;;4995080;28;20504;-76
2021/12/06 06:17:10;;;;;;;6.50;5.30;;;6.10;79.60;;;;;;4995242;28;20820;-76
2021/12/06 06:19:39;;;;;;;6.50;4.87;;;6.10;79.50;;;;;;4995330;28;20422;-76
2021/12/06 06:22:05;;;;;;;7.60;5.40;;;6.00;79.60;;;;;;4994997;28;20535;-76
2021/12/06 06:24:32;;;;;;;5.93;5.33;;;6.10;79.50;;;;;;4995021;28;20453;-76
2021/12/06 06:26:59;;;;;;;6.30;4.90;;;6.10;79.40;;;;;;4995034;28;20488;-76
2021/12/06 06:29:26;;;;;;;5.47;4.73;;;6.10;79.20;;;;;;4995190;28;20936;-76
2021/12/06 06:31:53;;;;;;;5.50;4.97;;;6.00;79.50;;;;;;4994912;28;20489;-76
2021/12/06 06:34:21;;;;;;;5.90;5.30;;;6.10;79.40;;;;;;4995268;28;20527;-76
2021/12/06 06:36:48;;;;;;;6.80;5.50;;;6.10;79.30;;;;;;4994762;28;20948;-76
2021/12/06 06:39:19;;;;;;;6.27;5.67;;;6.10;79.50;;;;;;4994970;28;20449;-76
2021/12/06 06:41:46;;;;;;;5.80;4.87;;;6.10;79.40;;;;;;4994747;28;20504;-76
2021/12/06 06:44:15;;;;;;;4.80;4.30;;;6.10;79.50;;;;;;4994814;28;20917;-76
2021/12/06 06:46:42;;;;;;;6.00;5.20;;;6.10;79.50;;;;;;4994666;28;20457;-76
2021/12/06 06:49:08;;;;;;;5.67;5.17;;;6.10;79.50;;;;;;4994621;28;20453;-75
2021/12/06 06:51:37;;;;;;;6.27;5.40;;;6.10;79.40;;;;;;4994491;28;20854;-76
2021/12/06 06:54:03;;;;;;;6.37;5.40;;;6.10;79.40;;;;;;4994647;28;20444;-75
2021/12/06 06:56:30;;;;;;;5.63;5.10;;;6.10;79.40;;;;;;4994541;28;20476;-76
2021/12/06 06:58:57;;;;;;;6.53;5.93;;;6.10;79.40;;;;;;4994057;28;20865;-76
2021/12/06 07:01:24;;;;;;;7.03;6.33;;;6.00;79.60;;;;;;4994065;28;20484;-76
2021/12/06 07:03:53;;;;;;;5.87;4.77;;;6.00;79.90;;;;;;4994375;28;20499;-75
2021/12/06 07:06:21;;;;;;;5.40;4.90;;;6.00;79.70;;;;;;4994454;28;20552;-75
2021/12/06 07:08:50;;;;;;;6.63;5.93;;;6.00;79.70;;;;;;4994206;28;20456;-77
2021/12/06 07:11:17;;;;;;;6.50;5.90;;;6.00;79.90;;;;;;4994763;28;20488;-75
2021/12/06 07:13:43;;;;;;;6.93;5.40;;;5.90;80.10;;;;;;4996400;28;20453;-79
2021/12/06 07:16:10;;;;;;;6.90;5.53;;;5.90;80.30;;;;;;4998704;28;20793;-78
2021/12/06 07:18:38;;;;;;;6.63;5.90;;;6.00;80.10;;;;;;4994697;28;20453;-76
2021/12/06 07:21:05;;;;;;;6.20;5.60;;;6.00;80.10;;;;;;4994300;28;20473;-76
2021/12/06 07:23:38;;;;;;;6.30;5.70;;;5.90;80.00;;;;;;4994471;28;20503;-75
2021/12/06 07:26:06;;;;;;;6.30;5.70;;;6.00;80.20;;;;;;4994233;28;20468;-75
2021/12/06 07:28:33;;;;;;;6.27;5.40;;;6.00;80.00;;;;;;4993979;28;20449;-75
2021/12/06 07:31:01;;;;;;;6.13;5.53;;;6.00;80.20;;;;;;4993984;28;20491;-75
2021/12/06 07:33:28;;;;;;;6.47;5.87;;;6.00;80.20;;;;;;4994018;28;20455;-75
2021/12/06 07:35:55;;;;;;;6.33;5.73;;;6.00;80.20;;;;;;4993713;28;20496;-75
2021/12/06 07:38:21;;;;;;;5.90;4.90;;;6.00;80.00;;;;;;4994059;28;20523;-75
2021/12/06 07:40:50;;;;;;;6.87;6.17;;;5.90;80.20;;;;;;4993930;28;20516;-76
2021/12/06 07:43:18;;;;;;;6.10;5.40;;;5.90;80.40;;;;;;4993255;28;20457;-75
2021/12/06 07:45:45;;;;;;;5.90;5.30;;;6.00;80.30;;;;;;4993961;28;20911;-75
2021/12/06 07:48:12;;;;;;;7.30;6.20;;;6.00;80.10;;;;;;4994024;28;20441;-75
2021/12/06 07:50:39;;;;;;;6.53;5.40;;;6.00;80.20;;;;;;4993879;28;20485;-76
2021/12/06 07:53:07;;;;;;;6.67;5.97;;;6.00;80.20;;;;;;4994026;28;20449;-76
2021/12/06 07:55:34;;;;;;;7.20;5.77;;;6.00;80.00;;;;;;4994006;28;20516;-76
2021/12/06 07:58:01;;;;;;;5.97;5.33;;;6.00;79.90;;;;;;4993892;28;20504;-76
2021/12/06 08:00:31;;;;;;;6.60;4.90;;;5.90;80.20;;;;;;4993346;28;20823;-76
2021/12/06 08:02:59;;;;;;;7.13;5.70;;;5.90;80.30;;;;;;4993882;28;20438;-76
2021/12/06 08:05:33;;;;;;;6.73;6.03;;;6.00;80.40;;;;;;4993896;28;20457;-75
2021/12/06 08:08:04;;;;;;;6.53;5.60;;;6.00;80.30;;;;;;4993851;28;20516;-76
2021/12/06 08:10:31;;;;;;;7.10;5.77;;;6.00;80.50;;;;;;4993428;28;20519;-75
2021/12/06 08:12:58;;;;;;;7.10;6.40;;;6.00;80.40;;;;;;4993572;28;20461;-76
2021/12/06 08:15:25;;;;;;;6.20;5.00;;;5.90;80.30;;;;;;4993732;28;20504;-76
2021/12/06 08:17:53;;;;;;;6.47;5.77;;;5.90;80.30;;;;;;4993777;28;20511;-76
2021/12/06 08:20:19;;;;;;;5.70;5.10;;;6.00;80.40;;;;;;4993733;28;20507;-75
2021/12/06 08:22:46;;;;;;;6.53;5.13;;;6.10;80.30;;;;;;4993623;28;20628;-75
2021/12/06 08:25:14;;;;;;;6.43;5.30;;;6.20;80.20;;;;;;4993677;28;20499;-75
2021/12/06 08:27:42;;;;;;;7.33;5.93;;;6.30;80.00;;;;;;4993833;28;20528;-74
2021/12/06 08:30:10;;;;;;;6.20;5.10;;;6.30;80.00;;;;;;4993667;28;20498;-75
2021/12/06 08:32:37;;;;;;;6.23;5.23;;;6.30;79.90;;;;;;4993210;28;20902;-75
2021/12/06 08:35:06;;;;;;;7.37;5.77;;;6.30;79.70;;;;;;4993645;28;20449;-75
2021/12/06 08:37:33;;;;;;;7.20;5.40;;;6.40;79.60;;;;;;4993590;28;20448;-75
2021/12/06 08:39:59;;;;;;;6.57;5.30;;;6.40;79.40;;;;;;4993217;28;20849;-75
2021/12/06 08:42:26;;;;;;;6.70;5.63;;;6.50;79.20;;;;;;4993461;28;20473;-75
2021/12/06 08:44:53;;;;;;;6.13;5.53;;;6.50;79.30;;;;;;4993264;28;20995;-75
2021/12/06 08:47:20;;;;;;;6.50;5.37;;;6.50;78.80;;;;;;4993458;28;20449;-75
2021/12/06 08:49:47;;;;;;;7.13;6.07;;;6.50;78.90;;;;;;4993176;28;20503;-75
2021/12/06 08:52:16;;;;;;;5.70;4.83;;;6.50;78.70;;;;;;4993269;28;20499;-75
2021/12/06 08:54:43;;;;;;;5.77;5.10;;;6.50;78.80;;;;;;4993139;28;20460;-75
2021/12/06 08:57:10;;;;;;;8.07;5.83;;;6.50;79.10;;;;;;4996885;28;20453;-74
2021/12/06 08:59:37;;;;;;;6.40;5.10;;;6.40;79.10;;;;;;4996555;28;20928;-75
2021/12/06 09:02:05;;;;;;;7.27;5.10;;;6.40;79.40;;;;;;4996432;28;20535;-75
2021/12/06 09:04:37;;;;;;;7.80;5.60;;;6.40;79.40;;;;;;4996759;28;20449;-75
2021/12/06 09:07:09;;;;;;;5.90;4.90;;;6.40;79.10;;;;;;4998319;28;20441;-76
2021/12/06 09:09:38;;;;;;;6.67;5.40;;;6.40;79.10;;;;;;4996646;28;20437;-76
2021/12/06 09:12:05;;;;;;;8.17;5.90;;;6.60;79.60;;;;;;4996131;28;20862;-76
2021/12/06 09:14:32;;;;;;;6.20;4.60;;;6.60;79.30;;;;;;4996407;28;20452;-75
2021/12/06 09:16:59;;;;;;;6.40;5.30;;;6.60;79.10;;;;;;4996174;28;20945;-75
2021/12/06 09:19:25;;;;;;;5.83;4.90;;;6.60;79.20;;;;;;4996485;28;20515;-74
2021/12/06 09:21:52;;;;;;;5.27;3.93;;;6.60;78.80;;;;;;4996377;28;20472;-74
2021/12/06 09:24:21;;;;;;;5.17;4.47;;;6.70;78.40;;;;;;4996371;28;20449;-75
2021/12/06 09:26:50;;;;;;;4.80;4.23;;;6.70;78.70;;;;;;4996274;28;20544;-75
2021/12/06 09:29:17;;;;;;;6.10;4.63;;;6.70;78.60;;;;;;4996361;28;20449;-76
2021/12/06 09:31:44;;;;;;;6.83;4.50;;;6.70;78.50;;;;;;4996488;28;20826;-75
2021/12/06 09:34:11;;;;;;;5.20;4.10;;;6.80;78.50;;;;;;4996533;28;20453;-76
2021/12/06 09:36:38;;;;;;;6.80;5.87;;;6.90;78.30;;;;;;4996047;28;20881;-76
2021/12/06 09:39:06;;;;;;;5.97;4.90;;;6.80;77.80;;;;;;4997528;28;20457;-76
2021/12/06 09:41:33;;;;;;;5.30;4.40;;;6.90;77.80;;;;;;4996991;28;20479;-76
2021/12/06 09:44:04;;;;;;;5.00;4.13;;;7.00;77.80;;;;;;4996724;28;20518;-76
2021/12/06 09:46:35;;;;;;;7.27;4.50;;;7.00;76.50;;;;;;4996821;28;20437;-76
2021/12/06 09:49:04;;;;;;;5.23;3.97;;;7.00;76.70;;;;;;4996582;28;20449;-75
2021/12/06 09:51:31;;;;;;;6.23;4.37;;;7.10;76.70;;;;;;4996078;28;20579;-76
2021/12/06 09:53:59;;;;;;;5.03;3.33;;;7.10;76.70;;;;;;4995833;28;21024;-75
2021/12/06 09:56:30;;;;;;;6.00;3.90;;;7.10;76.50;;;;;;4995902;28;20883;-75
2021/12/06 09:59:00;;;;;;;6.30;4.57;;;7.20;76.20;;;;;;4995588;28;20456;-76
2021/12/06 10:01:31;;;;;;;5.30;3.90;;;7.30;76.60;;;;;;4995461;28;20488;-75
2021/12/06 10:04:00;;;;;;;5.07;3.70;;;7.20;75.90;;;;;;4995797;28;20444;-76
2021/12/06 10:06:30;;;;;;;4.87;3.90;;;7.20;75.90;;;;;;4995287;28;20457;-76
2021/12/06 10:08:59;;;;;;;5.60;4.10;;;7.20;75.90;;;;;;4995684;28;20460;-76
2021/12/06 10:11:28;;;;;;;5.53;3.90;;;7.20;76.00;;;;;;4994912;28;21050;-75
2021/12/06 10:13:56;;;;;;;5.03;4.07;;;7.20;75.90;;;;;;5118247;23;20890;-77
2021/12/06 10:16:23;;;;;;;8.03;5.20;;;7.20;76.10;;;;;;4996925;28;20436;-77
2021/12/06 10:18:52;;;;;;;5.50;4.23;;;7.20;76.30;;;;;;4996336;28;20856;-77
2021/12/06 10:21:19;;;;;;;5.10;4.00;;;7.10;76.40;;;;;;4995666;28;20940;-77
2021/12/06 10:23:47;;;;;;;5.10;4.47;;;7.20;76.30;;;;;;4995841;28;20519;-77
2021/12/06 10:26:17;;;;;;;5.33;3.93;;;7.20;75.60;;;;;;4995674;28;20449;-77
2021/12/06 10:28:44;;;;;;;4.27;3.57;;;7.20;75.40;;;;;;4995470;28;20937;-77
2021/12/06 10:31:13;;;;;;;5.60;4.20;;;7.30;76.10;;;;;;4995651;28;20485;-77
2021/12/06 10:33:46;;;;;;;5.07;3.50;;;7.40;75.80;;;;;;4995086;28;21027;-77
2021/12/06 10:36:18;;;;;;;5.43;4.37;;;7.40;75.40;;;;;;4995694;28;20503;-77
2021/12/06 10:38:47;;;;;;;5.60;3.87;;;7.50;75.70;;;;;;4995333;28;20509;-77
2021/12/06 10:41:16;;;;;;;5.60;4.07;;;7.40;74.40;;;;;;4995481;28;20453;-76
2021/12/06 10:43:51;;;;;;;4.23;2.90;;;7.20;75.20;;;;;;4995688;28;20473;-77
2021/12/06 10:46:19;;;;;;;5.57;3.10;;;7.10;74.80;;;;;;4995307;28;20441;-77
2021/12/06 10:48:47;;;;;;;4.73;2.40;;;7.10;75.00;;;;;;4995561;28;20480;-77
2021/12/06 10:51:18;;;;;;;4.63;3.00;;;7.10;75.50;;;;;;4995120;28;20556;-76
2021/12/06 10:53:56;;;;;;;4.80;2.70;;;7.00;74.30;;;;;;4995113;28;20519;-77
2021/12/06 10:56:31;;;;;;;3.90;2.20;;;7.00;74.50;;;;;;4995974;28;20436;-77
2021/12/06 10:58:58;;;;;;;4.03;2.17;;;7.00;75.40;;;;;;4996649;28;20487;-77
2021/12/06 11:01:30;;;;;;;3.30;2.00;;;7.00;74.10;;;;;;4995599;28;20523;-77
2021/12/06 11:03:58;;;;;;;4.53;3.30;;;7.00;73.70;;;;;;4995245;28;20479;-77
2021/12/06 11:06:31;;;;;;;3.30;2.30;;;7.10;73.80;;;;;;4995489;28;20868;-77
2021/12/06 11:09:05;;;;;;;4.57;2.97;;;7.00;74.20;;;;;;4996325;28;20440;-77
2021/12/06 11:11:35;;;;;;;4.17;2.70;;;6.90;74.60;;;;;;4995341;28;20527;-77
2021/12/06 11:14:04;;;;;;;6.00;3.30;;;6.60;75.20;;;;;;4995857;28;20487;-76
2021/12/06 11:16:32;;;;;;;3.77;2.80;;;6.70;76.20;;;;;;4995663;28;20437;-75
2021/12/06 11:19:02;;;;;;;3.93;2.30;;;6.80;74.10;;;;;;4993935;28;20456;-76
2021/12/06 11:21:35;;;;;;;3.20;1.80;;;7.00;73.90;;;;;;4994501;28;20430;-75
2021/12/06 11:24:17;;;;;;;3.20;2.10;;;6.80;73.00;;;;;;4994334;28;20912;-75
2021/12/06 11:26:49;;;;;;;3.30;1.70;;;6.90;73.90;;;;;;4994053;28;20913;-75
2021/12/06 11:29:19;;;;;;;3.67;2.20;;;6.70;73.40;;;;;;4994230;28;20499;-75
2021/12/06 11:31:52;;;;;;;4.20;1.93;;;6.80;73.00;;;;;;4994175;28;20575;-75
2021/12/06 11:34:19;;;;;;;3.53;1.90;;;6.60;73.00;;;;;;4994158;28;20476;-75
2021/12/06 11:36:48;;;;;;;2.97;1.70;;;6.80;73.30;;;;;;4993875;28;20953;-75
2021/12/06 11:39:17;;;;;;;4.00;2.30;;;7.00;73.10;;;;;;4994285;28;20452;-75
2021/12/06 11:41:48;;;;;;;3.50;2.10;;;7.10;72.30;;;;;;4994645;28;20450;-75
2021/12/06 11:44:24;;;;;;;3.87;2.20;;;7.20;72.10;;;;;;4994183;28;20473;-74
2021/12/06 11:47:09;;;;;;;3.03;1.97;;;7.00;72.80;;;;;;4995498;28;20452;-74
2021/12/06 11:49:39;;;;;;;3.03;1.93;;;7.00;73.20;;;;;;4994917;28;20418;-73
2021/12/06 11:52:10;;;;;;;3.10;1.90;;;7.30;73.40;;;;;;4994034;28;20473;-75
2021/12/06 11:54:40;;;;;;;3.30;1.70;;;7.70;70.50;;;;;;4994199;28;20464;-75
2021/12/06 11:57:19;;;;;;;2.87;1.57;;;8.70;69.30;;;;;;4993987;28;20453;-75
2021/12/06 11:59:47;;;;;;;3.50;2.13;;;10.00;66.10;;;;;;4994014;28;20495;-75
2021/12/06 12:02:14;;;;;;;2.90;2.00;;;12.10;60.00;;;;;;4993622;28;20946;-75
2021/12/06 12:04:41;;;;;;;3.27;2.33;;;14.50;55.50;;;;;;4994370;28;20818;-76
2021/12/06 12:07:09;;;;;;;3.40;2.17;;;15.90;53.00;;;;;;4994639;28;20453;-75
2021/12/06 12:09:37;;;;;;;3.93;2.73;;;17.70;49.20;;;;;;4994459;28;20453;-75
2021/12/06 12:12:08;;;;;;;3.10;2.10;;;17.70;47.90;;;;;;4994746;28;20484;-75
2021/12/06 12:14:40;;;;;;;3.87;2.70;;;16.60;48.30;;;;;;4993921;28;20481;-76
2021/12/06 12:17:11;;;;;;;3.40;2.20;;;15.00;50.30;;;;;;4994419;28;20962;-75
2021/12/06 12:19:40;;;;;;;4.17;2.50;;;13.40;53.60;;;;;;4994475;28;20438;-76
2021/12/06 12:22:10;;;;;;;4.17;3.20;;;12.80;56.00;;;;;;4994496;28;20456;-75
2021/12/06 12:24:40;;;;;;;4.00;2.40;;;12.50;57.80;;;;;;4993935;28;20476;-75
2021/12/06 12:27:19;;;;;;;3.57;2.50;;;13.80;54.70;;;;;;4994959;28;20465;-76
2021/12/06 12:29:47;;;;;;;5.00;2.67;;;15.00;51.70;;;;;;4996293;28;20433;-76
2021/12/06 12:32:15;;;;;;;3.63;2.40;;;16.50;49.70;;;;;;4997866;28;21002;-76
2021/12/06 12:34:48;;;;;;;3.27;2.20;;;17.90;47.40;;;;;;4998797;28;20473;-77
2021/12/06 12:37:19;;;;;;;3.47;2.53;;;17.70;46.00;;;;;;4998105;28;20468;-76
2021/12/06 12:39:58;;;;;;;3.23;2.20;;;17.10;47.60;;;;;;4997417;28;20433;-76
2021/12/06 12:42:25;;;;;;;3.50;2.00;;;16.60;48.30;;;;;;4997468;28;20436;-76
2021/12/06 12:44:54;;;;;;;3.00;2.10;;;16.90;47.30;;;;;;4998203;28;20479;-76
2021/12/06 12:47:23;;;;;;;3.60;2.37;;;17.90;46.00;;;;;;4998206;28;20460;-76
2021/12/06 12:49:52;;;;;;;3.50;2.30;;;19.40;44.50;;;;;;4997870;28;20937;-76
2021/12/06 12:52:36;;;;;;;3.50;1.93;;;19.80;41.50;;;;;;4998336;28;20855;-75
2021/12/06 12:55:18;;;;;;;3.37;2.17;;;19.10;43.30;;;;;;4997196;28;20489;-75
2021/12/06 12:57:45;;;;;;;4.80;2.20;;;18.90;43.80;;;;;;4996958;28;20426;-75
2021/12/06 13:00:18;;;;;;;3.50;2.30;;;19.60;41.60;;;;;;4997643;28;20457;-78
2021/12/06 13:02:46;;;;;;;3.03;1.80;;;20.50;41.70;;;;;;4997737;28;20908;-77
2021/12/06 13:05:26;;;;;;;3.40;1.70;;;22.10;38.60;;;;;;4997716;28;20489;-77
2021/12/06 13:08:10;;;;;;;3.70;1.77;;;23.60;37.50;;;;;;4998199;28;20540;-79
2021/12/06 13:10:47;;;;;;;2.93;1.80;;;25.40;35.50;;;;;;4999484;28;20422;-79
2021/12/06 13:13:19;;;;;;;3.07;1.70;;;26.20;33.00;;;;;;4998944;28;20484;-79
2021/12/06 13:15:54;;;;;;;3.13;2.00;;;26.70;32.50;;;;;;4999586;28;20452;-79
2021/12/06 13:18:53;;;;;;;2.97;1.60;;;27.30;31.70;;;;;;4999807;28;20935;-79
2021/12/06 13:21:58;;;;;;;3.17;1.50;;;27.70;30.70;;;;;;5000618;28;20430;-79
2021/12/06 13:24:33;;;;;;;2.80;1.63;;;28.30;30.60;;;;;;4996705;28;20472;-77
2021/12/06 13:27:02;;;;;;;2.70;1.43;;;29.20;29.90;;;;;;4996830;28;20437;-76
2021/12/06 13:29:40;;;;;;;3.93;1.70;;;29.90;28.40;;;;;;4996693;28;20511;-76
2021/12/06 13:32:26;;;;;;;3.20;1.57;;;29.80;28.20;;;;;;4996630;28;20436;-75
2021/12/06 13:34:55;;;;;;;2.70;1.50;;;29.80;27.70;;;;;;4996731;28;20523;-77
2021/12/06 13:37:26;;;;;;;3.37;1.80;;;28.60;28.80;;;;;;4996336;28;20940;-77
2021/12/06 13:39:54;;;;;;;2.77;1.50;;;26.40;30.50;;;;;;4996079;28;20901;-77
2021/12/06 13:42:38;;;;;;;2.77;1.23;;;24.10;32.90;;;;;;4995647;28;20453;-76
2021/12/06 13:45:15;;;;;;;3.37;1.40;;;21.80;35.60;;;;;;4996058;28;20472;-76
2021/12/06 13:47:42;;;;;;;2.50;1.20;;;19.90;38.00;;;;;;4996142;28;20492;-75
2021/12/06 13:50:11;;;;;;;3.20;1.60;;;18.20;40.20;;;;;;4996162;28;20487;-75
2021/12/06 13:52:40;;;;;;;2.93;1.53;;;16.60;43.00;;;;;;4996149;28;20481;-76
2021/12/06 13:55:24;;;;;;;2.47;1.17;;;15.40;45.30;;;;;;4996123;28;20465;-76
2021/12/06 13:57:54;;;;;;;2.70;1.30;;;14.20;47.20;;;;;;4996040;28;20433;-73
2021/12/06 14:00:25;;;;;;;2.77;1.23;;;13.20;48.90;;;;;;4996334;28;20445;-77
2021/12/06 14:02:54;;;;;;;3.27;1.60;;;12.50;51.20;;;;;;4997529;28;20449;-78
2021/12/06 14:05:22;;;;;;;2.53;1.13;;;11.60;52.70;;;;;;5000350;28;21007;-78
2021/12/06 14:07:49;;;;;;;2.83;1.17;;;11.00;54.50;;;;;;4998578;28;20468;-77
2021/12/06 14:10:16;;;;;;;2.30;1.00;;;10.60;55.60;;;;;;4996319;28;20543;-77
2021/12/06 14:12:45;;;;;;;2.40;1.00;;;9.50;58.10;;;;;;4995784;28;20484;-77
2021/12/06 14:15:19;;;;;;;2.67;1.40;;;9.20;59.70;;;;;;4995651;28;20539;-77
2021/12/06 14:17:49;;;;;;;2.53;1.50;;;9.60;59.90;;;;;;4995571;28;20531;-75
2021/12/06 14:20:16;;;;;;;3.30;1.77;;;9.60;60.50;;;;;;4996057;28;20456;-75
2021/12/06 14:22:44;;;;;;;2.60;1.40;;;9.70;61.00;;;;;;4995543;28;20504;-75
2021/12/06 14:25:13;;;;;;;3.37;1.77;;;9.70;60.30;;;;;;4995266;28;20520;-75
2021/12/06 14:27:41;;;;;;;2.60;1.50;;;9.40;61.50;;;;;;4995497;28;20449;-75
2021/12/06 14:30:13;;;;;;;2.70;1.50;;;9.30;61.90;;;;;;4995377;28;20890;-75
2021/12/06 14:32:47;;;;;;;2.57;1.33;;;9.10;62.80;;;;;;4995197;28;20585;-75
2021/12/06 14:35:14;;;;;;;2.23;1.03;;;8.60;63.80;;;;;;4994826;28;20555;-75
2021/12/06 14:37:42;;;;;;;3.47;1.60;;;8.20;65.10;;;;;;4995348;28;20503;-74
2021/12/06 14:40:11;;;;;;;3.03;1.47;;;8.10;65.70;;;;;;4995184;28;20457;-75
2021/12/06 14:42:40;;;;;;;3.03;1.53;;;8.10;66.20;;;;;;4995216;28;20453;-75
2021/12/06 14:45:10;;;;;;;3.20;1.40;;;7.70;67.20;;;;;;4994983;28;20503;-75
2021/12/06 14:47:41;;;;;;;3.00;1.50;;;7.40;68.30;;;;;;4995220;28;20453;-74
2021/12/06 14:50:14;;;;;;;2.60;1.17;;;7.20;68.40;;;;;;4994908;28;20464;-75
2021/12/06 14:52:44;;;;;;;2.50;1.17;;;7.00;69.50;;;;;;4994863;28;20840;-75
2021/12/06 14:55:23;;;;;;;2.57;1.00;;;6.60;69.70;;;;;;4994924;28;20489;-75
2021/12/06 14:57:52;;;;;;;2.80;1.40;;;6.30;70.40;;;;;;4994879;28;20433;-75
2021/12/06 15:00:23;;;;;;;2.60;1.13;;;5.90;72.00;;;;;;4994445;28;20837;-74
2021/12/06 15:02:52;;;;;;;2.70;1.30;;;5.70;72.40;;;;;;4994751;28;20481;-74
2021/12/06 15:05:23;;;;;;;2.70;1.13;;;5.60;72.90;;;;;;4994526;28;20469;-75
2021/12/06 15:07:52;;;;;;;2.40;1.10;;;5.70;73.30;;;;;;4994639;28;20448;-75
2021/12/06 15:10:20;;;;;;;2.40;1.03;;;5.50;73.30;;;;;;4994677;28;20453;-75
2021/12/06 15:12:51;;;;;;;2.17;0.80;;;5.60;72.90;;;;;;4994593;28;20481;-75
2021/12/06 15:15:30;;;;;;;2.93;1.00;;;5.70;72.70;;;;;;4994534;28;20496;-75
2021/12/06 15:17:57;;;;;;;2.53;0.90;;;5.40;73.00;;;;;;4994714;28;20425;-75
2021/12/06 15:20:28;;;;;;;2.57;1.17;;;5.20;73.30;;;;;;4994631;28;20445;-75
2021/12/06 15:22:55;;;;;;;2.50;1.10;;;5.40;73.20;;;;;;4994390;28;20454;-75
2021/12/06 15:25:23;;;;;;;2.60;1.00;;;5.60;72.90;;;;;;4994309;28;20485;-76
2021/12/06 15:27:49;;;;;;;2.60;1.00;;;5.70;71.60;;;;;;4994511;28;20453;-74
2021/12/06 15:30:18;;;;;;;2.60;0.80;;;5.70;71.00;;;;;;4994102;28;20449;-75
2021/12/06 15:32:50;;;;;;;2.40;0.90;;;5.60;71.40;;;;;;4993956;28;20449;-75
2021/12/06 15:35:25;;;;;;;2.60;1.03;;;5.60;71.70;;;;;;4994263;28;20566;-75
2021/12/06 15:37:52;;;;;;;2.50;1.00;;;5.70;71.70;;;;;;4994248;28;20971;-75
2021/12/06 15:40:19;;;;;;;2.33;0.90;;;5.70;71.10;;;;;;4994577;28;20476;-75
2021/12/06 15:42:45;;;;;;;2.50;0.87;;;5.80;70.90;;;;;;4994384;28;20453;-75
2021/12/06 15:45:12;;;;;;;4.57;1.33;;;6.00;70.80;;;;;;4994130;28;20883;-75
2021/12/06 15:47:46;;;;;;;3.67;1.03;;;6.10;70.30;;;;;;4994262;28;20548;-74
2021/12/06 15:50:17;;;;;;;2.40;0.97;;;6.10;69.40;;;;;;4994236;28;20437;-75
2021/12/06 15:52:46;;;;;;;2.40;1.10;;;5.80;70.20;;;;;;4994278;28;20449;-75
2021/12/06 15:55:16;;;;;;;2.40;0.90;;;5.90;70.00;;;;;;4994880;28;20503;-76
2021/12/06 15:57:44;;;;;;;2.80;1.40;;;5.70;70.60;;;;;;4994801;28;20440;-75
2021/12/06 16:00:15;;;;;;;2.63;0.97;;;5.80;70.40;;;;;;5005171;28;20429;-74
2021/12/06 16:02:44;;;;;;;2.67;1.07;;;5.70;70.90;;;;;;5013677;28;20429;-75
2021/12/06 16:05:15;;;;;;;2.60;0.97;;;5.50;71.00;;;;;;5002561;28;20492;-75
2021/12/06 16:07:44;;;;;;;2.60;1.00;;;5.30;71.20;;;;;;4998630;28;20492;-74
2021/12/06 16:10:15;;;;;;;4.13;1.07;;;5.30;71.50;;;;;;4998435;28;20454;-74
2021/12/06 16:12:50;;;;;;;2.50;0.90;;;5.00;72.50;;;;;;4998102;28;20464;-74
2021/12/06 16:15:17;;;;;;;2.30;0.80;;;5.00;72.60;;;;;;4998969;28;20882;-74
2021/12/06 16:17:44;;;;;;;2.50;0.90;;;5.00;73.00;;;;;;4998019;28;20452;-75
2021/12/06 16:20:12;;;;;;;2.30;1.00;;;5.10;72.70;;;;;;4997966;28;20453;-75
2021/12/06 16:22:40;;;;;;;2.80;1.30;;;4.80;73.00;;;;;;4998152;28;20544;-74
2021/12/06 16:25:07;;;;;;;2.40;0.90;;;4.80;73.50;;;;;;4997542;28;20464;-74
2021/12/06 16:27:34;;;;;;;2.53;1.20;;;4.70;73.50;;;;;;4998467;28;20453;-74
2021/12/06 16:30:04;;;;;;;2.60;1.10;;;4.50;74.10;;;;;;4998665;28;20499;-76
2021/12/06 16:32:31;;;;;;;3.27;1.10;;;4.50;74.60;;;;;;4997869;28;20825;-76
2021/12/06 16:34:58;;;;;;;2.50;1.07;;;4.50;74.50;;;;;;4997902;28;20500;-76
2021/12/06 16:37:28;;;;;;;2.43;1.13;;;4.50;74.40;;;;;;4997729;28;20496;-76
2021/12/06 16:39:58;;;;;;;4.07;1.60;;;4.50;74.50;;;;;;4997531;28;20449;-76
2021/12/06 16:42:28;;;;;;;2.50;1.10;;;4.60;74.50;;;;;;4998007;28;20491;-75
2021/12/06 16:44:58;;;;;;;2.97;1.30;;;4.80;74.20;;;;;;4997099;28;21050;-75
2021/12/06 16:47:28;;;;;;;3.07;1.43;;;4.70;73.80;;;;;;4997182;28;20449;-75
2021/12/06 16:50:08;;;;;;;2.70;1.30;;;4.80;73.80;;;;;;4997492;28;20429;-75
2021/12/06 16:52:38;;;;;;;3.33;1.60;;;4.80;74.10;;;;;;4997780;28;20433;-75
2021/12/06 16:55:15;;;;;;;2.73;1.30;;;4.80;73.70;;;;;;4997460;28;20492;-75
2021/12/06 16:57:45;;;;;;;2.67;1.13;;;4.80;73.60;;;;;;4997521;28;20492;-75
2021/12/06 17:00:15;;;;;;;2.43;1.03;;;4.90;73.40;;;;;;4997132;28;20499;-76
2021/12/06 17:02:43;;;;;;;2.80;1.10;;;4.90;73.20;;;;;;4997055;28;20433;-76
2021/12/06 17:05:12;;;;;;;2.53;1.00;;;5.00;73.10;;;;;;4996932;28;20469;-75
2021/12/06 17:07:40;;;;;;;2.27;0.90;;;4.90;73.20;;;;;;4996638;28;20975;-75